Time;durP1;ratioP1;P1;durP2;ratioP2;P2;SDS_P1;SDS_P2;PMS_P1;PMS_P2;Temp;Humidity;BMP_temperature;BMP_pressure;BME280_temperature;BME280_humidity;BME280_pressure;Samples;Min_cycle;Max_cycle;Signal;HPM_P1;HPM_P2
2022/06/07 00:10:11;;;;;;;7.50;4.70;;;;;;;13.98;90.75;100963.34;20903536;28;20041;-68
2022/06/07 00:20:34;;;;;;;10.63;4.47;;;;;;;13.99;90.72;100962.38;20916221;28;20049;-66
2022/06/07 00:30:57;;;;;;;6.40;4.18;;;;;;;14.03;90.52;100952.50;20917028;28;20039;-66
2022/06/07 00:41:18;;;;;;;11.90;4.75;;;;;;;14.03;91.56;100937.63;20900613;28;20383;-67
2022/06/07 00:51:40;;;;;;;14.13;5.07;;;;;;;14.01;91.52;100943.91;20906953;28;20047;-66
2022/06/07 01:02:02;;;;;;;6.75;4.72;;;;;;;14.00;91.85;100931.75;20911563;28;20048;-68
2022/06/07 01:12:24;;;;;;;6.38;4.95;;;;;;;14.01;91.47;100925.56;20937989;28;20060;-68
2022/06/07 01:22:45;;;;;;;;;;;;;;;14.12;97.32;100917.69;20920812;28;20045;-64
2022/06/07 01:33:14;;;;;;;8.82;5.97;;;;;;;14.00;91.69;100892.44;20918203;28;19948;-67
2022/06/07 01:43:36;;;;;;;7.03;6.28;;;;;;;14.04;91.98;100883.38;20930722;28;20045;-65
2022/06/07 01:53:58;;;;;;;8.45;7.35;;;;;;;14.05;91.80;100883.25;20918947;28;20040;-65
2022/06/07 02:04:22;;;;;;;7.82;6.75;;;;;;;14.04;92.11;100870.28;20906415;28;20052;-65
2022/06/07 02:14:43;;;;;;;8.00;6.65;;;;;;;14.05;91.35;100874.56;20933912;28;20051;-65
2022/06/07 02:25:05;;;;;;;8.13;6.90;;;;;;;14.05;91.57;100858.84;20951823;28;20049;-64
2022/06/07 02:35:27;;;;;;;8.35;6.10;;;;;;;13.99;90.88;100867.19;20934621;28;20113;-63
2022/06/07 02:45:48;;;;;;;8.85;6.68;;;;;;;14.01;90.73;100852.16;20965358;28;20047;-66
2022/06/07 02:56:10;;;;;;;;;;;;;;;14.11;96.65;100840.03;20929315;28;20044;-66
2022/06/07 03:06:32;;;;;;;7.47;6.70;;;;;;;13.97;90.96;100837.66;20938435;28;19999;-66
2022/06/07 03:16:53;;;;;;;11.18;7.40;;;;;;;13.92;90.91;100824.06;20931753;28;20076;-66
2022/06/07 03:27:16;;;;;;;9.35;7.85;;;;;;;13.92;90.60;100834.53;20920269;28;20068;-65
2022/06/07 03:37:38;;;;;;;8.57;6.72;;;;;;;13.89;89.32;100835.63;20946328;28;20115;-66
2022/06/07 03:47:59;;;;;;;8.82;7.47;;;;;;;13.92;90.91;100824.06;20964760;28;20052;-65
2022/06/07 03:58:21;;;;;;;9.20;8.07;;;;;;;13.94;89.51;100817.75;20914825;28;20040;-66
2022/06/07 04:08:42;;;;;;;;;;;;;;;14.03;95.83;100806.56;20904600;28;20053;-64
2022/06/07 04:19:04;;;;;;;14.30;8.80;;;;;;;14.00;90.57;100819.03;20915954;28;19922;-66
2022/06/07 04:29:25;;;;;;;9.80;8.75;;;;;;;14.04;90.32;100823.09;20926781;28;20500;-65
2022/06/07 04:39:47;;;;;;;11.10;9.35;;;;;;;14.08;90.10;100814.03;20921692;28;20045;-65
2022/06/07 04:50:11;;;;;;;11.00;9.70;;;;;;;14.15;89.69;100804.75;20935591;28;20037;-64
2022/06/07 05:00:32;;;;;;;14.45;10.68;;;;;;;14.17;88.72;100802.84;20927295;28;20059;-65
2022/06/07 05:10:54;;;;;;;;;;;;;;;14.35;95.39;100801.38;20925869;28;20444;-65
2022/06/07 05:21:16;;;;;;;13.97;10.37;;;;;;;14.34;89.67;100789.22;20931134;28;19925;-64
2022/06/07 05:31:38;;;;;;;13.40;10.80;;;;;;;14.49;87.83;100800.16;20942576;28;20489;-65
2022/06/07 05:42:02;;;;;;;13.80;10.48;;;;;;;14.60;87.66;100784.38;20905408;28;20045;-65
2022/06/07 05:52:24;;;;;;;13.70;10.68;;;;;;;14.73;85.25;100777.16;20931833;28;20067;-65
2022/06/07 06:02:45;;;;;;;16.08;10.05;;;;;;;14.80;85.98;100783.56;20932880;28;20044;-65
2022/06/07 06:13:07;;;;;;;12.68;9.20;;;;;;;14.90;84.44;100789.72;20897166;28;20045;-65
2022/06/07 06:23:28;;;;;;;;;;;;;;;14.93;86.59;100784.22;20928093;28;20056;-65
2022/06/07 06:33:52;;;;;;;12.47;8.30;;;;;;;14.96;82.63;100788.38;20931945;28;19924;-65
2022/06/07 06:44:14;;;;;;;13.18;8.57;;;;;;;15.06;80.85;100784.03;20925286;28;20059;-65
2022/06/07 06:54:37;;;;;;;;;;;;;;;15.06;83.86;100778.78;20926588;28;20128;-68
2022/06/07 07:04:58;;;;;;;13.35;8.63;;;;;;;15.19;81.60;100790.75;20919182;28;20388;-66
2022/06/07 07:15:20;;;;;;;11.55;8.95;;;;;;;15.19;81.46;100800.44;20911042;28;20127;-66
2022/06/07 07:25:42;;;;;;;14.50;9.07;;;;;;;15.25;82.08;100805.16;20927729;28;20045;-66
2022/06/07 07:36:11;;;;;;;14.52;8.73;;;;;;;15.26;80.65;100812.09;20919191;28;20045;-65
2022/06/07 07:46:35;;;;;;;10.70;7.90;;;;;;;15.27;79.24;100804.13;20902601;28;20044;-64
2022/06/07 07:56:57;;;;;;;11.88;7.90;;;;;;;15.31;79.09;100810.75;20921417;28;20052;-65
2022/06/07 08:07:18;;;;;;;9.00;7.07;;;;;;;15.31;79.38;100818.63;20913675;28;20045;-64
2022/06/07 08:17:40;;;;;;;;;;;;;;;15.20;81.42;100841.50;20923837;28;20044;-65
2022/06/07 08:28:02;;;;;;;11.83;8.43;;;;;;;14.87;82.58;100850.34;20930410;28;19921;-64
2022/06/07 08:38:23;;;;;;;11.77;9.60;;;;;;;14.57;85.27;100860.69;20916810;28;20052;-64
2022/06/07 08:48:45;;;;;;;12.70;10.27;;;;;;;14.41;87.65;100869.09;20935482;28;20041;-66
2022/06/07 08:59:15;;;;;;;16.98;10.30;;;;;;;14.30;89.95;100871.72;20912098;28;20055;-65
2022/06/07 09:20:41;;;;;;;17.92;11.30;;;;;;;14.22;91.80;100884.63;20926177;28;20041;-65
2022/06/07 09:31:11;;;;;;;15.57;11.32;;;;;;;14.40;90.90;100886.63;20924749;28;20051;-64
2022/06/07 09:41:45;;;;;;;20.50;12.60;;;;;;;14.50;88.93;100887.53;20930216;28;20048;-66
2022/06/07 09:52:25;;;;;;;20.98;12.65;;;;;;;14.71;89.54;100888.47;20907826;28;20037;-65
2022/06/07 10:03:00;;;;;;;17.03;11.53;;;;;;;14.57;88.58;100907.09;20910092;28;20040;-68
2022/06/07 10:13:39;;;;;;;16.67;10.80;;;;;;;14.29;92.20;100912.00;20911105;28;20496;-64
2022/06/07 10:24:25;;;;;;;18.33;10.00;;;;;;;14.27;92.65;100906.03;20908948;28;20106;-64
2022/06/07 10:34:55;;;;;;;19.23;11.75;;;;;;;14.56;90.49;100890.50;20917554;28;20037;-65
2022/06/07 10:45:39;;;;;;;17.27;11.87;;;;;;;14.80;86.48;100898.22;20936735;28;20055;-63
2022/06/07 10:56:14;;;;;;;14.93;11.15;;;;;;;14.92;85.97;100913.81;20927588;28;20057;-65
2022/06/07 11:17:36;;;;;;;19.05;11.80;;;;;;;15.09;85.34;100923.78;20925890;28;20032;-66
2022/06/07 11:28:06;;;;;;;21.55;12.23;;;;;;;15.13;85.18;100917.31;20925214;28;20049;-65
2022/06/07 11:38:30;;;;;;;16.58;11.82;;;;;;;14.98;84.74;100922.97;20909454;28;20078;-66
2022/06/07 11:48:53;;;;;;;18.98;11.27;;;;;;;15.07;83.71;100917.81;20961935;28;20059;-66
2022/06/07 11:59:18;;;;;;;21.70;10.95;;;;;;;15.34;83.31;100920.00;20902713;28;20045;-64
2022/06/07 12:09:48;;;;;;;19.05;11.07;;;;;;;15.43;83.18;100928.78;20897101;28;20392;-65
2022/06/07 12:20:32;;;;;;;19.17;9.95;;;;;;;15.50;82.33;100942.25;20915558;28;20493;-66
2022/06/07 12:30:54;;;;;;;12.93;8.60;;;;;;;15.55;80.47;100925.13;20930600;28;20040;-65
2022/06/07 12:41:25;;;;;;;14.85;8.38;;;;;;;15.84;81.17;100930.59;20919316;28;20072;-66
2022/06/07 12:51:56;;;;;;;21.50;7.33;;;;;;;16.00;79.94;100930.97;20928174;28;20434;-65
2022/06/07 13:02:24;;;;;;;14.63;7.03;;;;;;;16.06;79.71;100931.28;20933403;28;20643;-66
2022/06/07 13:12:49;;;;;;;13.55;6.07;;;;;;;16.14;79.38;100933.25;20948156;28;20401;-65
2022/06/07 13:23:40;;;;;;;8.23;5.80;;;;;;;16.20;80.31;100924.81;20958474;28;20060;-67
2022/06/07 13:34:20;;;;;;;9.07;6.00;;;;;;;16.33;78.84;100925.44;20968835;28;20076;-67
2022/06/07 13:44:54;;;;;;;12.43;6.28;;;;;;;16.48;78.19;100917.88;20972971;28;20084;-67
2022/06/07 13:55:34;;;;;;;13.15;7.00;;;;;;;16.60;77.03;100916.81;20969422;28;20032;-66
2022/06/07 14:05:56;;;;;;;11.48;6.38;;;;;;;16.49;78.07;100930.09;20937138;28;20130;-67
2022/06/07 14:16:28;;;;;;;18.42;6.90;;;;;;;16.54;77.60;100917.38;20918184;28;20045;-67
2022/06/07 14:26:50;;;;;;;10.48;6.78;;;;;;;16.65;77.95;100933.03;20944346;28;20067;-68
2022/06/07 14:37:16;;;;;;;8.27;5.30;;;;;;;16.62;77.86;100928.03;20923952;28;20045;-67
2022/06/07 14:47:39;;;;;;;9.38;5.32;;;;;;;16.63;77.60;100936.78;20924190;28;20047;-67
2022/06/07 14:58:01;;;;;;;12.05;5.18;;;;;;;16.60;78.36;100947.59;20930738;28;20124;-68
2022/06/07 15:08:23;;;;;;;;;;;;;;;16.58;80.38;100953.00;20900116;28;20043;-67
2022/06/07 15:18:45;;;;;;;13.70;4.90;;;;;;;16.63;79.07;100953.41;20912589;28;19927;-64
2022/06/07 15:29:07;;;;;;;8.98;4.55;;;;;;;16.72;78.35;100942.09;20917242;28;20044;-67
2022/06/07 15:39:32;;;;;;;8.07;3.85;;;;;;;16.81;77.26;100930.72;20915885;28;20032;-68
2022/06/07 15:50:18;;;;;;;4.97;2.93;;;;;;;16.88;76.89;100918.66;20917361;28;20471;-67
2022/06/07 16:00:40;;;;;;;7.03;3.17;;;;;;;16.97;76.59;100925.75;20900455;28;20082;-65
2022/06/07 16:11:02;;;;;;;4.82;2.70;;;;;;;17.06;76.55;100917.03;20912627;28;20040;-65
2022/06/07 16:21:25;;;;;;;3.67;1.90;;;;;;;17.18;74.96;100915.91;20900607;28;20043;-67
2022/06/07 16:42:28;;;;;;;2.70;0.97;;;;;;;17.18;74.12;100912.47;20924226;28;20049;-66
2022/06/07 16:52:50;;;;;;;3.03;1.20;;;;;;;17.16;74.66;100920.53;20917635;28;20048;-65
2022/06/07 17:03:11;;;;;;;3.30;1.30;;;;;;;17.15;74.44;100913.59;20917401;28;20045;-66
2022/06/07 17:13:33;;;;;;;1.27;0.80;;;;;;;17.29;74.57;100914.94;20910158;28;20794;-67
2022/06/07 17:23:55;;;;;;;4.45;1.27;;;;;;;17.56;73.17;100915.94;20906304;28;20048;-66
2022/06/07 17:34:18;;;;;;;4.22;1.45;;;;;;;17.76;73.17;100930.75;20927059;28;20072;-66
2022/06/07 17:44:40;;;;;;;3.90;1.48;;;;;;;17.91;73.02;100919.63;20911800;28;20531;-67
2022/06/07 17:55:04;;;;;;;4.22;1.58;;;;;;;17.72;73.73;100916.19;20923111;28;20135;-66
2022/06/07 18:05:29;;;;;;;3.17;1.33;;;;;;;17.74;73.92;100927.44;20906653;28;20063;-66
2022/06/07 18:15:57;;;;;;;5.38;1.55;;;;;;;17.62;74.48;100931.19;20901888;28;20124;-66
2022/06/07 18:26:19;;;;;;;3.45;1.65;;;;;;;17.53;75.10;100926.75;20919409;28;20094;-66
2022/06/07 18:36:47;;;;;;;3.90;1.40;;;;;;;17.23;75.19;100932.16;20931968;28;20044;-66
2022/06/07 18:47:14;;;;;;;6.55;1.63;;;;;;;16.99;76.20;100929.09;20961115;28;20037;-67
2022/06/07 18:57:37;;;;;;;5.57;1.75;;;;;;;16.78;77.22;100933.63;20921236;28;20715;-67
2022/06/07 19:08:00;;;;;;;6.45;1.70;;;;;;;16.65;77.59;100934.84;20904986;28;20044;-66
2022/06/07 19:18:22;;;;;;;4.07;1.67;;;;;;;16.49;78.34;100950.31;20899833;28;20037;-67
2022/06/07 19:28:43;;;;;;;6.13;1.83;;;;;;;16.38;78.59;100952.22;20918209;28;20140;-67
2022/06/07 19:39:05;;;;;;;4.47;1.92;;;;;;;16.27;79.01;100960.16;20896423;28;20123;-66
2022/06/07 19:49:29;;;;;;;6.28;2.03;;;;;;;16.09;80.22;100967.00;20926295;28;20037;-69
2022/06/07 19:59:50;;;;;;;6.55;2.20;;;;;;;16.03;81.55;100964.88;20923043;28;20059;-66
2022/06/07 20:10:12;;;;;;;;;;;;;;;15.86;85.85;100962.84;20910276;28;20607;-67
2022/06/07 20:20:35;;;;;;;7.55;2.47;;;;;;;15.73;83.15;100959.56;20908676;28;19948;-66
2022/06/07 20:30:57;;;;;;;6.22;2.20;;;;;;;15.62;83.68;100968.34;20925301;28;20064;-66
2022/06/07 20:41:26;;;;;;;5.28;2.30;;;;;;;15.45;84.54;100965.44;20938148;28;20048;-66
2022/06/07 20:51:47;;;;;;;;;;;;;;;15.32;87.82;100959.53;20916482;28;20135;-66
2022/06/07 21:02:14;;;;;;;7.13;2.42;;;;;;;15.23;85.27;100959.41;20922041;28;20308;-66
2022/06/07 21:12:36;;;;;;;5.03;2.53;;;;;;;15.14;84.96;100953.09;20914510;28;20055;-66
2022/06/07 21:22:59;;;;;;;8.32;2.70;;;;;;;15.04;85.12;100956.63;20941454;28;20058;-66
2022/06/07 21:33:21;;;;;;;7.63;3.17;;;;;;;14.88;85.72;100954.38;20927301;28;20044;-66
2022/06/07 21:43:42;;;;;;;;;;;;;;;14.74;90.62;100951.19;20918665;28;20059;-66
2022/06/07 21:54:04;;;;;;;9.25;3.60;;;;;;;14.65;87.00;100957.16;20923233;28;19928;-66
2022/06/07 22:04:26;;;;;;;9.90;3.03;;;;;;;14.56;86.69;100944.78;20933264;28;20044;-67
2022/06/07 22:14:49;;;;;;;;;;;;;;;14.53;90.49;100947.63;20908785;28;20051;-66
2022/06/07 22:25:11;;;;;;;6.90;3.65;;;;;;;14.46;86.22;100928.13;20905089;28;20380;-66
2022/06/07 22:35:33;;;;;;;11.85;3.42;;;;;;;14.44;86.12;100932.63;20917576;28;20070;-66
2022/06/07 22:45:55;;;;;;;10.25;4.28;;;;;;;14.21;87.37;100919.66;20904444;28;20689;-67
2022/06/07 22:56:16;;;;;;;;;;;;;;;14.07;90.89;100901.50;20916268;28;20063;-68
2022/06/07 23:06:44;;;;;;;5.33;4.30;;;;;;;14.07;87.54;100901.50;20926677;28;19924;-67
2022/06/07 23:17:17;;;;;;;8.23;4.90;;;;;;;13.93;87.62;100892.06;20921200;28;20055;-66
2022/06/07 23:27:39;;;;;;;8.73;4.40;;;;;;;13.79;87.96;100887.06;20915778;28;20568;-66
2022/06/07 23:38:00;;;;;;;8.15;5.30;;;;;;;13.67;88.80;100881.94;20920478;28;20044;-67
2022/06/07 23:48:22;;;;;;;9.63;5.50;;;;;;;13.61;88.39;100882.41;20903692;28;20045;-68
2022/06/07 23:58:44;;;;;;;;;;;;;;;13.57;92.41;100880.97;20917941;28;20043;-68
